createdAt,value
2019-04-19T00:00:04.507Z,99.90
2019-04-19T00:02:41.182Z,99.90
2019-04-19T00:05:07.974Z,99.90
2019-04-19T00:07:39.768Z,99.90
2019-04-19T00:10:21.734Z,99.90
2019-04-19T00:12:46.849Z,99.90
2019-04-19T00:15:09.756Z,99.90
2019-04-19T00:17:39.875Z,99.90
2019-04-19T00:20:44.697Z,99.90
2019-04-19T00:22:57.116Z,99.90
2019-04-19T00:25:09.724Z,99.90
2019-04-19T00:27:46.055Z,99.90
2019-04-19T00:30:23.740Z,99.90
2019-04-19T00:32:58.206Z,99.90
2019-04-19T00:35:10.150Z,99.90
2019-04-19T00:37:38.875Z,99.90
2019-04-19T00:40:31.990Z,99.90
2019-04-19T00:43:08.955Z,99.90
2019-04-19T00:46:01.177Z,99.90
2019-04-19T00:48:29.659Z,99.90
2019-04-19T00:50:57.678Z,99.90
2019-04-19T00:53:24.519Z,99.90
2019-04-19T00:55:54.382Z,99.90
2019-04-19T00:58:20.082Z,99.90
2019-04-19T01:00:44.622Z,99.90
2019-04-19T01:03:15.920Z,99.90
2019-04-19T01:05:52.167Z,99.90
2019-04-19T01:08:20.717Z,99.90
2019-04-19T01:13:45.146Z,99.90
2019-04-19T01:16:08.789Z,99.90
2019-04-19T01:18:41.173Z,99.90
2019-04-19T01:20:58.871Z,99.90
2019-04-19T01:23:27.558Z,99.90
2019-04-19T01:26:03.006Z,99.90
2019-04-19T01:28:28.905Z,99.90
2019-04-19T01:30:57.198Z,99.90
2019-04-19T01:33:38.973Z,99.90
2019-04-19T01:36:04.392Z,99.90
2019-04-19T01:38:41.934Z,99.90
2019-04-19T01:41:20.712Z,99.90
2019-04-19T01:43:56.558Z,99.90
2019-04-19T01:46:48.912Z,99.90
2019-04-19T01:49:17.878Z,99.90
2019-04-19T01:52:05.791Z,99.90
2019-04-19T01:54:29.852Z,99.90
2019-04-19T01:56:54.935Z,99.90
2019-04-19T01:59:20.175Z,99.90
2019-04-19T02:01:50.597Z,99.90
2019-04-19T02:04:24.629Z,99.90
2019-04-19T02:06:51.569Z,99.90
2019-04-19T02:09:33.899Z,99.90
2019-04-19T02:12:11.651Z,99.90
2019-04-19T02:14:38.498Z,99.90
2019-04-19T02:17:03.148Z,99.90
2019-04-19T02:19:31.983Z,99.90
2019-04-19T02:22:07.436Z,99.90
2019-04-19T02:24:37.115Z,99.90
2019-04-19T02:27:07.367Z,99.90
2019-04-19T02:29:34.606Z,99.90
2019-04-19T02:32:22.185Z,99.90
2019-04-19T02:35:04.303Z,99.90
2019-04-19T02:37:26.748Z,99.90
2019-04-19T02:47:40.036Z,99.90
2019-04-19T02:50:05.302Z,99.90
2019-04-19T02:52:41.063Z,99.90
2019-04-19T03:05:42.132Z,99.90
2019-04-19T03:07:53.810Z,99.90
2019-04-19T03:10:25.912Z,99.90
2019-04-19T03:13:09.617Z,99.90
2019-04-19T03:15:44.133Z,99.90
2019-04-19T03:18:19.431Z,99.90
2019-04-19T03:20:39.017Z,99.90
2019-04-19T03:23:08.246Z,99.90
2019-04-19T03:25:35.858Z,99.90
2019-04-19T03:28:09.263Z,99.90
2019-04-19T03:30:53.902Z,99.90
2019-04-19T03:35:50.043Z,99.90
2019-04-19T03:38:15.783Z,99.90
2019-04-19T03:40:44.416Z,99.90
2019-04-19T03:43:33.069Z,99.90
2019-04-19T03:46:03.505Z,99.90
2019-04-19T03:48:27.159Z,99.90
2019-04-19T03:51:00.503Z,99.90
2019-04-19T03:53:30.879Z,99.90
2019-04-19T03:56:08.016Z,99.90
2019-04-19T03:58:15.357Z,99.90
2019-04-19T04:00:40.638Z,99.90
2019-04-19T04:03:20.416Z,99.90
2019-04-19T04:05:44.397Z,99.90
2019-04-19T04:08:19.817Z,99.90
2019-04-19T04:10:50.415Z,99.90
2019-04-19T04:13:32.831Z,99.90
2019-04-19T04:16:14.121Z,99.90
2019-04-19T04:18:34.117Z,99.90
2019-04-19T04:21:03.883Z,99.90
2019-04-19T04:23:39.226Z,99.90
2019-04-19T04:26:10.979Z,99.90
2019-04-19T04:28:48.249Z,99.90
2019-04-19T04:31:15.091Z,99.90
2019-04-19T04:33:45.533Z,99.90
2019-04-19T04:36:25.358Z,99.90
2019-04-19T04:38:40.718Z,99.90
2019-04-19T04:41:13.593Z,99.90
2019-04-19T04:43:49.444Z,99.90
2019-04-19T04:46:53.729Z,99.90
2019-04-19T04:49:30.329Z,99.90
2019-04-19T04:51:55.848Z,99.90
2019-04-19T04:54:16.548Z,99.90
2019-04-19T04:57:01.073Z,99.90
2019-04-19T04:59:25.159Z,99.90
2019-04-19T05:02:01.351Z,99.90
2019-04-19T05:04:34.190Z,99.90
2019-04-19T05:07:16.546Z,99.90
2019-04-19T05:09:46.658Z,99.90
2019-04-19T05:12:18.116Z,99.90
2019-04-19T05:14:43.150Z,99.90
2019-04-19T05:17:34.644Z,99.90
2019-04-19T05:19:50.074Z,99.90
2019-04-19T05:22:14.959Z,99.90
2019-04-19T05:24:59.144Z,99.90
2019-04-19T05:27:22.234Z,99.90
2019-04-19T05:29:37.711Z,99.90
2019-04-19T05:32:10.138Z,99.90
2019-04-19T05:34:49.117Z,99.90
2019-04-19T05:37:17.301Z,99.90
2019-04-19T05:40:03.895Z,99.90
2019-04-19T05:42:34.555Z,99.90
2019-04-19T05:45:20.571Z,99.90
2019-04-19T05:47:30.579Z,99.90
2019-04-19T05:50:07.582Z,99.90
2019-04-19T05:52:34.396Z,99.90
2019-04-19T05:54:49.251Z,99.90
2019-04-19T05:57:36.128Z,99.90
2019-04-19T05:59:56.826Z,99.90
2019-04-19T06:02:28.378Z,99.90
2019-04-19T06:05:15.536Z,99.90
2019-04-19T06:07:34.663Z,99.90
2019-04-19T06:09:54.039Z,99.90
2019-04-19T06:12:26.834Z,99.90
2019-04-19T06:15:13.261Z,99.90
2019-04-19T06:17:58.824Z,99.90
2019-04-19T06:20:31.512Z,99.90
2019-04-19T06:23:02.585Z,99.90
2019-04-19T06:25:39.118Z,99.90
2019-04-19T06:30:41.659Z,99.90
2019-04-19T06:33:12.006Z,99.90
2019-04-19T06:35:33.094Z,99.90
2019-04-19T06:37:52.312Z,99.90
2019-04-19T06:40:27.669Z,99.90
2019-04-19T06:42:59.662Z,99.90
2019-04-19T06:45:40.429Z,99.90
2019-04-19T06:48:01.903Z,99.90
2019-04-19T06:50:30.036Z,99.90
2019-04-19T06:52:55.342Z,99.90
2019-04-19T06:55:31.126Z,99.90
2019-04-19T06:58:05.818Z,99.90
2019-04-19T07:00:43.700Z,99.90
2019-04-19T07:02:58.415Z,99.90
2019-04-19T07:05:38.551Z,99.90
2019-04-19T07:08:29.721Z,99.90
2019-04-19T07:11:06.211Z,99.90
2019-04-19T07:13:13.946Z,99.90
2019-04-19T07:15:57.644Z,99.90
2019-04-19T07:18:20.049Z,99.90
2019-04-19T07:20:48.627Z,99.90
2019-04-19T07:23:15.766Z,99.90
2019-04-19T07:25:55.546Z,99.90
2019-04-19T07:28:09.765Z,99.90
2019-04-19T07:30:34.945Z,99.90
2019-04-19T07:33:10.212Z,99.90
2019-04-19T07:35:55.571Z,99.90
2019-04-19T07:38:41.532Z,99.90
2019-04-19T07:40:54.279Z,99.90
2019-04-19T07:43:23.625Z,99.90
2019-04-19T07:46:02.745Z,99.90
2019-04-19T07:48:20.900Z,99.60
2019-04-19T07:50:56.907Z,99.20
2019-04-19T07:53:21.700Z,99.40
2019-04-19T07:56:01.984Z,99.70
2019-04-19T07:58:47.397Z,98.40
2019-04-19T08:01:17.342Z,95.80
2019-04-19T08:04:03.844Z,97.20
2019-04-19T08:06:18.469Z,95.40
2019-04-19T08:11:26.781Z,94.80
2019-04-19T08:13:57.779Z,95.20
2019-04-19T08:16:27.801Z,95.90
2019-04-19T08:28:42.395Z,92.00
2019-04-19T08:31:02.514Z,92.30
2019-04-19T08:33:32.077Z,93.20
2019-04-19T08:36:05.254Z,90.70
2019-04-19T08:38:32.912Z,90.60
2019-04-19T08:41:13.660Z,90.30
2019-04-19T08:43:51.052Z,84.60
2019-04-19T08:46:09.066Z,86.00
2019-04-19T08:48:55.732Z,90.40
2019-04-19T08:51:41.999Z,88.90
2019-04-19T08:54:31.779Z,90.10
2019-04-19T08:56:51.331Z,85.40
2019-04-19T08:59:38.601Z,80.20
2019-04-19T09:02:00.598Z,82.90
2019-04-19T09:04:38.835Z,82.60
2019-04-19T09:07:35.263Z,84.60
2019-04-19T09:09:35.348Z,84.40
2019-04-19T09:12:10.597Z,82.50
2019-04-19T09:14:37.665Z,81.20
2019-04-19T09:17:17.933Z,76.70
2019-04-19T09:19:55.368Z,74.50
2019-04-19T09:22:04.017Z,77.30
2019-04-19T09:24:30.938Z,76.50
2019-04-19T09:27:04.968Z,70.90
2019-04-19T09:29:39.902Z,71.50
2019-04-19T09:32:00.675Z,70.00
2019-04-19T09:34:23.585Z,72.90
2019-04-19T09:37:03.467Z,70.50
2019-04-19T09:39:39.734Z,63.80
2019-04-19T09:42:00.769Z,69.20
2019-04-19T09:44:32.615Z,66.80
2019-04-19T09:46:54.970Z,66.90
2019-04-19T09:49:43.093Z,66.90
2019-04-19T09:52:15.922Z,64.70
2019-04-19T09:54:51.704Z,64.10
2019-04-19T09:57:13.242Z,60.30
2019-04-19T09:59:32.902Z,63.00
2019-04-19T10:02:01.979Z,64.10
2019-04-19T10:04:29.424Z,62.50
2019-04-19T10:06:58.707Z,57.80
2019-04-19T10:09:27.455Z,62.00
2019-04-19T10:11:57.902Z,58.90
2019-04-19T10:14:27.715Z,59.10
2019-04-19T10:17:04.920Z,62.40
2019-04-19T10:19:35.058Z,55.10
2019-04-19T10:22:10.033Z,56.90
2019-04-19T10:24:39.133Z,52.50
2019-04-19T10:27:37.654Z,51.80
2019-04-19T10:30:34.451Z,50.80
2019-04-19T10:33:04.571Z,56.60
2019-04-19T10:35:33.669Z,52.70
2019-04-19T10:38:03.698Z,55.00
2019-04-19T10:40:33.537Z,53.40
2019-04-19T10:43:03.226Z,54.00
2019-04-19T10:45:32.095Z,53.90
2019-04-19T10:48:20.118Z,59.10
2019-04-19T10:50:57.343Z,56.60
2019-04-19T10:53:26.240Z,51.90
2019-04-19T10:56:02.574Z,51.20
2019-04-19T10:58:31.477Z,50.30
2019-04-19T11:01:01.079Z,50.00
2019-04-19T11:03:30.799Z,48.10
2019-04-19T11:06:00.718Z,52.10
2019-04-19T11:08:30.770Z,51.10
2019-04-19T11:10:59.659Z,52.20
2019-04-19T11:13:29.586Z,53.50
2019-04-19T11:16:00.346Z,54.50
2019-04-19T11:18:29.894Z,50.10
2019-04-19T11:20:59.406Z,50.50
2019-04-19T11:23:29.433Z,50.50
2019-04-19T11:25:58.918Z,48.90
2019-04-19T11:28:29.115Z,46.30
2019-04-19T11:31:15.836Z,49.80
2019-04-19T11:33:44.216Z,48.60
2019-04-19T11:36:13.289Z,49.90
2019-04-19T11:38:43.052Z,47.00
2019-04-19T11:41:13.133Z,48.80
2019-04-19T11:43:43.421Z,46.30
2019-04-19T11:46:12.142Z,47.80
2019-04-19T11:48:41.665Z,47.30
2019-04-19T11:51:11.778Z,46.50
2019-04-19T11:53:42.964Z,48.20
2019-04-19T11:56:29.719Z,48.40
2019-04-19T11:58:58.716Z,48.00
2019-04-19T12:01:30.572Z,47.10
2019-04-19T12:04:00.372Z,48.20
2019-04-19T12:06:30.061Z,48.90
2019-04-19T12:08:59.114Z,47.60
2019-04-19T12:11:30.361Z,46.70
2019-04-19T12:13:59.376Z,48.20
2019-04-19T12:16:28.732Z,48.00
2019-04-19T12:18:58.148Z,45.80
2019-04-19T12:21:27.329Z,49.40
2019-04-19T12:23:56.986Z,48.10
2019-04-19T12:26:25.857Z,47.20
2019-04-19T12:28:55.668Z,49.00
2019-04-19T12:31:25.358Z,48.80
2019-04-19T12:33:55.370Z,47.90
2019-04-19T12:36:25.454Z,45.70
2019-04-19T12:38:54.564Z,46.90
2019-04-19T12:41:23.974Z,45.50
2019-04-19T12:43:53.955Z,48.00
2019-04-19T12:46:23.230Z,46.40
2019-04-19T12:48:52.123Z,43.80
2019-04-19T12:51:21.849Z,44.50
2019-04-19T12:53:51.273Z,45.10
2019-04-19T12:56:22.372Z,44.30
2019-04-19T12:58:51.479Z,45.90
2019-04-19T13:01:23.999Z,45.70
2019-04-19T13:03:57.871Z,46.40
2019-04-19T13:06:29.494Z,43.90
2019-04-19T13:08:59.245Z,44.60
2019-04-19T13:11:29.334Z,42.60
2019-04-19T13:13:59.760Z,41.60
2019-04-19T13:16:28.687Z,43.90
2019-04-19T13:18:58.485Z,45.20
2019-04-19T13:21:28.217Z,44.90
2019-04-19T13:23:58.424Z,44.90
2019-04-19T13:26:27.590Z,46.00
2019-04-19T13:28:57.530Z,43.60
2019-04-19T13:31:27.123Z,47.60
2019-04-19T13:33:57.519Z,45.00
2019-04-19T13:36:45.095Z,45.20
2019-04-19T13:39:27.783Z,42.10
2019-04-19T13:42:01.062Z,45.60
2019-04-19T13:44:30.389Z,41.10
2019-04-19T13:47:00.156Z,43.90
2019-04-19T13:49:30.538Z,45.40
2019-04-19T13:52:00.676Z,46.00
2019-04-19T13:54:30.333Z,43.30
2019-04-19T13:56:59.643Z,44.10
2019-04-19T13:59:38.850Z,43.60
2019-04-19T14:01:59.012Z,43.90
2019-04-19T14:04:29.110Z,45.70
2019-04-19T14:06:58.330Z,44.40
2019-04-19T14:09:27.531Z,43.70
2019-04-19T14:11:57.479Z,45.10
2019-04-19T14:14:26.285Z,43.40
2019-04-19T14:16:55.736Z,42.40
2019-04-19T14:19:24.890Z,42.80
2019-04-19T14:21:54.989Z,42.50
2019-04-19T14:24:25.029Z,41.70
2019-04-19T14:26:56.337Z,42.80
2019-04-19T14:29:25.421Z,42.20
2019-04-19T14:31:54.556Z,43.90
2019-04-19T14:34:24.713Z,44.50
2019-04-19T14:36:53.919Z,42.40
2019-04-19T14:39:24.665Z,43.40
2019-04-19T14:41:53.970Z,47.40
2019-04-19T14:44:22.821Z,44.00
2019-04-19T14:46:52.611Z,43.80
2019-04-19T14:49:22.778Z,44.60
2019-04-19T14:51:51.913Z,45.90
2019-04-19T14:54:21.168Z,46.30
2019-04-19T14:56:50.246Z,47.40
2019-04-19T14:59:19.102Z,47.30
2019-04-19T15:01:58.535Z,46.80
2019-04-19T15:04:46.931Z,48.10
2019-04-19T15:07:18.525Z,49.10
2019-04-19T15:09:47.924Z,48.10
2019-04-19T15:12:16.643Z,47.80
2019-04-19T15:14:46.859Z,48.60
2019-04-19T15:17:16.177Z,48.90
2019-04-19T15:19:46.107Z,48.20
2019-04-19T15:22:17.635Z,49.10
2019-04-19T15:24:48.754Z,47.60
2019-04-19T15:27:19.107Z,49.30
2019-04-19T15:29:50.773Z,50.20
2019-04-19T15:32:22.315Z,48.10
2019-04-19T15:34:53.741Z,49.20
2019-04-19T15:37:23.207Z,49.20
2019-04-19T15:39:52.120Z,50.10
2019-04-19T15:42:20.932Z,49.40
2019-04-19T15:44:50.975Z,50.10
2019-04-19T15:47:21.083Z,50.80
2019-04-19T15:49:50.162Z,51.00
2019-04-19T15:52:19.833Z,49.00
2019-04-19T15:54:49.992Z,48.80
2019-04-19T15:57:18.968Z,49.80
2019-04-19T15:59:47.819Z,50.10
2019-04-19T16:02:40.106Z,50.80
2019-04-19T16:05:22.067Z,49.90
2019-04-19T16:08:08.180Z,50.80
2019-04-19T16:10:52.854Z,49.50
2019-04-19T16:13:21.724Z,50.70
2019-04-19T16:15:51.945Z,50.00
2019-04-19T16:18:22.163Z,49.90
2019-04-19T16:20:52.425Z,50.80
2019-04-19T16:23:21.489Z,50.40
2019-04-19T16:25:51.207Z,50.70
2019-04-19T16:28:21.233Z,49.40
2019-04-19T16:30:50.482Z,50.60
2019-04-19T16:33:19.916Z,51.50
2019-04-19T16:35:48.880Z,50.30
2019-04-19T16:38:17.579Z,50.20
2019-04-19T16:40:46.445Z,50.30
2019-04-19T16:43:15.457Z,50.90
2019-04-19T16:45:44.355Z,49.70
2019-04-19T16:48:14.427Z,50.10
2019-04-19T16:50:43.539Z,49.10
2019-04-19T16:53:13.524Z,50.10
2019-04-19T16:55:43.640Z,49.60
2019-04-19T16:58:12.759Z,52.10
2019-04-19T17:00:44.857Z,50.70
2019-04-19T17:03:15.205Z,51.80
2019-04-19T17:05:44.613Z,52.70
2019-04-19T17:08:13.719Z,52.30
2019-04-19T17:10:42.893Z,51.30
2019-04-19T17:13:12.776Z,52.30
2019-04-19T17:16:04.812Z,51.40
2019-04-19T17:18:56.793Z,51.60
2019-04-19T17:21:28.026Z,54.00
2019-04-19T17:23:56.975Z,53.00
2019-04-19T17:26:26.715Z,53.10
2019-04-19T17:28:59.061Z,54.00
2019-04-19T17:31:28.356Z,54.20
2019-04-19T17:33:58.071Z,54.80
2019-04-19T17:36:28.198Z,55.30
2019-04-19T17:38:58.747Z,54.00
2019-04-19T17:41:30.337Z,54.90
2019-04-19T17:44:01.601Z,54.40
2019-04-19T17:46:30.630Z,54.20
2019-04-19T17:48:59.358Z,55.10
2019-04-19T17:51:29.493Z,55.60
2019-04-19T17:53:58.517Z,55.40
2019-04-19T17:56:29.091Z,53.90
2019-04-19T17:58:58.260Z,55.10
2019-04-19T18:01:28.167Z,55.70
2019-04-19T18:03:58.513Z,53.60
2019-04-19T18:06:28.479Z,54.40
2019-04-19T18:09:03.744Z,55.20
2019-04-19T18:11:31.675Z,54.10
2019-04-19T18:13:59.279Z,54.50
2019-04-19T18:16:28.187Z,54.00
2019-04-19T18:18:58.701Z,54.00
2019-04-19T18:21:30.820Z,53.00
2019-04-19T18:24:08.411Z,53.10
2019-04-19T18:26:32.149Z,53.80
2019-04-19T18:29:01.016Z,52.90
2019-04-19T18:31:37.582Z,53.50
2019-04-19T18:34:06.831Z,53.50
2019-04-19T18:36:32.690Z,53.70
2019-04-19T18:39:06.339Z,54.20
2019-04-19T18:41:34.474Z,54.40
2019-04-19T18:44:13.570Z,55.00
2019-04-19T18:46:35.228Z,55.10
2019-04-19T18:49:05.473Z,54.70
2019-04-19T18:51:40.301Z,54.90
2019-04-19T18:54:13.912Z,56.00
2019-04-19T18:56:36.240Z,54.80
2019-04-19T18:59:11.865Z,55.70
2019-04-19T19:01:38.382Z,54.60
2019-04-19T19:04:14.506Z,55.60
2019-04-19T19:06:41.216Z,55.40
2019-04-19T19:09:12.545Z,56.70
2019-04-19T19:11:40.328Z,55.50
2019-04-19T19:14:10.894Z,55.40
2019-04-19T19:16:41.466Z,55.80
2019-04-19T19:19:16.594Z,56.70
2019-04-19T19:21:45.112Z,56.40
2019-04-19T19:24:34.443Z,57.10
2019-04-19T19:26:57.281Z,58.20
2019-04-19T19:29:14.280Z,57.90
2019-04-19T19:31:43.240Z,59.80
2019-04-19T19:34:14.801Z,59.40
2019-04-19T19:36:48.365Z,59.00
2019-04-19T19:39:23.529Z,59.30
2019-04-19T19:44:37.415Z,58.40
2019-04-19T19:47:28.371Z,57.30
2019-04-19T19:49:48.122Z,58.30
2019-04-19T19:52:18.668Z,58.70
2019-04-19T19:55:00.486Z,57.90
2019-04-19T19:57:24.688Z,57.60
2019-04-19T19:59:37.728Z,58.20
2019-04-19T20:02:17.379Z,60.90
2019-04-19T20:04:37.218Z,62.60
2019-04-19T20:07:09.262Z,59.10
2019-04-19T20:09:36.024Z,59.20
2019-04-19T20:12:13.277Z,58.10
2019-04-19T20:14:37.377Z,58.20
2019-04-19T20:17:11.020Z,57.10
2019-04-19T20:19:37.407Z,57.60
2019-04-19T20:22:08.483Z,57.50
2019-04-19T20:24:50.734Z,56.70
2019-04-19T20:27:12.953Z,58.40
2019-04-19T20:29:37.641Z,56.90
2019-04-19T20:32:12.570Z,56.00
2019-04-19T20:34:40.263Z,56.30
2019-04-19T20:37:13.130Z,56.70
2019-04-19T20:39:43.484Z,56.70
2019-04-19T20:42:15.322Z,56.40
2019-04-19T20:44:53.097Z,57.40
2019-04-19T20:47:19.379Z,58.10
2019-04-19T20:49:47.321Z,58.30
2019-04-19T20:52:31.115Z,57.40
2019-04-19T20:55:10.015Z,57.40
2019-04-19T20:57:58.896Z,56.30
2019-04-19T21:00:32.803Z,56.90
2019-04-19T21:02:59.146Z,57.20
2019-04-19T21:05:35.702Z,58.00
2019-04-19T21:08:09.649Z,58.30
2019-04-19T21:10:37.509Z,57.50
2019-04-19T21:13:10.598Z,58.30
2019-04-19T21:15:38.839Z,58.50
2019-04-19T21:18:09.788Z,59.10
2019-04-19T21:20:38.402Z,58.00
2019-04-19T21:23:17.918Z,58.10
2019-04-19T21:25:45.852Z,59.40
2019-04-19T21:28:08.573Z,59.50
2019-04-19T21:30:40.073Z,58.90
2019-04-19T21:33:12.460Z,58.70
2019-04-19T21:35:43.010Z,59.50
2019-04-19T21:38:17.025Z,59.40
2019-04-19T21:40:43.707Z,58.90
2019-04-19T21:43:13.035Z,59.20
2019-04-19T21:45:47.950Z,59.80
2019-04-19T21:48:12.930Z,60.00
2019-04-19T21:50:45.437Z,59.00
2019-04-19T21:53:12.858Z,59.50
2019-04-19T21:55:44.774Z,60.00
2019-04-19T21:58:16.706Z,60.20
2019-04-19T22:00:59.667Z,61.30
2019-04-19T22:03:28.291Z,60.80
2019-04-19T22:05:57.410Z,61.30
2019-04-19T22:08:29.676Z,62.70
2019-04-19T22:10:56.644Z,62.10
2019-04-19T22:13:33.313Z,63.30
2019-04-19T22:15:58.787Z,64.10
2019-04-19T22:18:27.517Z,64.70
2019-04-19T22:21:01.061Z,64.60
2019-04-19T22:23:26.979Z,65.80
2019-04-19T22:26:11.131Z,66.00
2019-04-19T22:28:26.252Z,67.20
2019-04-19T22:30:56.485Z,66.80
2019-04-19T22:33:25.852Z,67.80
2019-04-19T22:35:57.967Z,68.60
2019-04-19T22:38:25.687Z,68.10
2019-04-19T22:40:54.748Z,69.50
2019-04-19T22:43:24.634Z,70.00
2019-04-19T22:45:58.782Z,70.00
2019-04-19T22:48:25.237Z,71.10
2019-04-19T22:50:58.363Z,72.00
2019-04-19T22:53:31.245Z,72.10
2019-04-19T22:56:08.018Z,72.60
2019-04-19T22:58:28.822Z,73.90
2019-04-19T23:00:59.033Z,72.90
2019-04-19T23:03:37.320Z,73.90
2019-04-19T23:06:05.819Z,73.20
2019-04-19T23:08:39.222Z,74.10
2019-04-19T23:11:08.941Z,76.80
2019-04-19T23:13:37.601Z,76.90
2019-04-19T23:16:09.838Z,78.40
2019-04-19T23:18:37.059Z,78.90
2019-04-19T23:21:12.575Z,78.70
2019-04-19T23:23:36.461Z,79.80
2019-04-19T23:26:19.949Z,78.50
2019-04-19T23:28:39.384Z,80.10
2019-04-19T23:31:10.886Z,82.40
2019-04-19T23:33:37.434Z,82.30
2019-04-19T23:36:14.632Z,82.10
2019-04-19T23:38:37.103Z,83.00
2019-04-19T23:41:06.961Z,83.80
2019-04-19T23:43:39.455Z,85.00
2019-04-19T23:46:10.851Z,86.30
2019-04-19T23:48:38.265Z,88.30
2019-04-19T23:51:08.376Z,87.80
2019-04-19T23:53:41.003Z,88.60
2019-04-19T23:56:20.162Z,91.10
2019-04-19T23:58:42.086Z,91.00
